createdAt,value
2017-12-05T00:00:03.261Z,3.80
2017-12-05T00:00:37.137Z,4.60
2017-12-05T00:01:11.013Z,4.18
2017-12-05T00:01:45.098Z,4.55
2017-12-05T00:02:19.053Z,3.47
2017-12-05T00:02:52.938Z,3.40
2017-12-05T00:03:26.936Z,4.40
2017-12-05T00:04:00.930Z,5.03
2017-12-05T00:04:34.848Z,4.37
2017-12-05T00:05:08.697Z,4.00
2017-12-05T00:05:42.730Z,4.20
2017-12-05T00:06:16.597Z,3.75
2017-12-05T00:06:50.506Z,4.40
2017-12-05T00:07:24.362Z,4.00
2017-12-05T00:07:58.238Z,3.40
2017-12-05T00:08:32.101Z,4.65
2017-12-05T00:09:05.970Z,3.85
2017-12-05T00:09:40.090Z,3.47
2017-12-05T00:10:13.998Z,3.75
2017-12-05T00:10:47.877Z,4.50
2017-12-05T00:11:21.784Z,3.67
2017-12-05T00:11:55.893Z,4.32
2017-12-05T00:12:30.002Z,3.05
2017-12-05T00:13:03.864Z,3.80
2017-12-05T00:13:37.880Z,4.40
2017-12-05T00:14:11.751Z,4.10
2017-12-05T00:14:45.600Z,3.95
2017-12-05T00:15:19.465Z,4.07
2017-12-05T00:15:53.314Z,4.15
2017-12-05T00:16:27.197Z,4.70
2017-12-05T00:17:01.058Z,3.97
2017-12-05T00:17:34.945Z,4.12
2017-12-05T00:18:08.812Z,4.40
2017-12-05T00:18:42.689Z,3.80
2017-12-05T00:19:16.562Z,4.40
2017-12-05T00:19:50.629Z,4.10
2017-12-05T00:20:24.556Z,4.05
2017-12-05T00:20:58.384Z,5.07
2017-12-05T00:21:32.248Z,4.85
2017-12-05T00:22:06.301Z,4.22
2017-12-05T00:22:40.192Z,3.75
2017-12-05T00:23:14.037Z,4.85
2017-12-05T00:23:47.900Z,4.35
2017-12-05T00:24:21.922Z,3.40
2017-12-05T00:24:55.778Z,3.87
2017-12-05T00:25:29.644Z,4.32
2017-12-05T00:26:03.514Z,4.57
2017-12-05T00:26:37.388Z,4.53
2017-12-05T00:27:11.469Z,4.37
2017-12-05T00:27:45.469Z,3.95
2017-12-05T00:28:19.341Z,3.92
2017-12-05T00:28:53.210Z,4.05
2017-12-05T00:29:27.382Z,4.57
2017-12-05T00:30:01.291Z,4.00
2017-12-05T00:30:35.172Z,4.22
2017-12-05T00:31:09.034Z,3.60
2017-12-05T00:31:42.923Z,4.03
2017-12-05T00:32:16.810Z,3.40
2017-12-05T00:32:50.697Z,4.40
2017-12-05T00:33:24.560Z,4.12
2017-12-05T00:33:58.725Z,3.97
2017-12-05T00:34:32.616Z,3.70
2017-12-05T00:35:06.489Z,3.40
2017-12-05T00:35:40.342Z,4.20
2017-12-05T00:36:14.217Z,5.32
2017-12-05T00:36:48.077Z,4.65
2017-12-05T00:37:21.981Z,4.57
2017-12-05T00:37:55.850Z,4.05
2017-12-05T00:38:29.749Z,4.47
2017-12-05T00:39:03.602Z,4.22
2017-12-05T00:39:37.483Z,4.30
2017-12-05T00:40:11.374Z,4.75
2017-12-05T00:40:45.286Z,4.10
2017-12-05T00:41:19.149Z,4.15
2017-12-05T00:41:53.001Z,4.78
2017-12-05T00:42:27.173Z,4.28
2017-12-05T00:43:01.251Z,3.83
2017-12-05T00:43:35.150Z,4.75
2017-12-05T00:44:09.136Z,4.55
2017-12-05T00:44:43.019Z,4.00
2017-12-05T00:45:16.880Z,4.47
2017-12-05T00:45:50.753Z,4.97
2017-12-05T00:46:24.620Z,4.53
2017-12-05T00:46:58.513Z,5.72
2017-12-05T00:47:32.393Z,4.60
2017-12-05T00:48:06.257Z,4.37
2017-12-05T00:48:40.632Z,4.95
2017-12-05T00:49:14.613Z,4.55
2017-12-05T00:49:48.506Z,4.30
2017-12-05T00:50:22.718Z,4.80
2017-12-05T00:50:56.606Z,4.55
2017-12-05T00:51:30.481Z,4.35
2017-12-05T00:52:04.494Z,4.57
2017-12-05T00:52:38.357Z,4.65
2017-12-05T00:53:12.240Z,4.00
2017-12-05T00:53:46.406Z,4.25
2017-12-05T00:54:20.263Z,4.82
2017-12-05T00:54:54.119Z,5.35
2017-12-05T00:55:28.082Z,4.43
2017-12-05T00:56:01.961Z,4.70
2017-12-05T00:56:35.822Z,4.35
2017-12-05T00:57:09.693Z,4.53
2017-12-05T00:57:43.683Z,4.93
2017-12-05T00:58:17.541Z,5.15
2017-12-05T00:58:51.501Z,4.95
2017-12-05T00:59:25.383Z,5.57
2017-12-05T00:59:59.293Z,5.05
2017-12-05T01:00:33.156Z,6.03
2017-12-05T01:01:07.033Z,4.80
2017-12-05T01:01:40.884Z,4.07
2017-12-05T01:02:14.750Z,4.47
2017-12-05T01:02:48.614Z,3.97
2017-12-05T01:03:22.487Z,4.75
2017-12-05T01:03:56.500Z,5.97
2017-12-05T01:04:30.367Z,4.22
2017-12-05T01:05:04.228Z,4.60
2017-12-05T01:05:38.183Z,4.60
2017-12-05T01:06:12.041Z,5.35
2017-12-05T01:06:45.910Z,5.05
2017-12-05T01:07:19.980Z,4.95
2017-12-05T01:07:54.017Z,4.18
2017-12-05T01:08:28.080Z,4.50
2017-12-05T01:09:01.939Z,5.18
2017-12-05T01:09:35.954Z,4.90
2017-12-05T01:10:09.837Z,5.10
2017-12-05T01:10:43.710Z,4.85
2017-12-05T01:11:17.569Z,4.70
2017-12-05T01:11:51.478Z,4.90
2017-12-05T01:12:25.553Z,4.50
2017-12-05T01:12:59.638Z,4.90
2017-12-05T01:13:33.512Z,4.95
2017-12-05T01:14:07.378Z,5.22
2017-12-05T01:14:41.299Z,5.12
2017-12-05T01:15:15.230Z,6.03
2017-12-05T01:15:49.089Z,4.32
2017-12-05T01:16:23.110Z,4.97
2017-12-05T01:16:57.122Z,5.22
2017-12-05T01:17:31.373Z,5.35
2017-12-05T01:18:05.232Z,5.10
2017-12-05T01:18:39.261Z,5.00
2017-12-05T01:19:13.130Z,5.45
2017-12-05T01:19:47.190Z,5.25
2017-12-05T01:20:21.149Z,5.28
2017-12-05T01:20:55.067Z,5.32
2017-12-05T01:21:28.926Z,5.57
2017-12-05T01:22:02.859Z,4.93
2017-12-05T01:22:36.896Z,4.90
2017-12-05T01:23:10.887Z,4.90
2017-12-05T01:23:44.780Z,5.80
2017-12-05T01:24:18.689Z,4.87
2017-12-05T01:24:52.616Z,5.78
2017-12-05T01:25:26.489Z,5.40
2017-12-05T01:26:00.460Z,4.60
2017-12-05T01:26:34.321Z,5.93
2017-12-05T01:27:08.274Z,5.70
2017-12-05T01:27:42.145Z,5.37
2017-12-05T01:28:16.008Z,5.03
2017-12-05T01:28:50.161Z,5.97
2017-12-05T01:29:24.062Z,5.57
2017-12-05T01:29:57.929Z,4.82
2017-12-05T01:30:31.836Z,4.85
2017-12-05T01:31:05.729Z,4.80
2017-12-05T01:31:39.710Z,5.65
2017-12-05T01:32:13.567Z,5.62
2017-12-05T01:32:47.432Z,5.30
2017-12-05T01:33:21.301Z,5.60
2017-12-05T01:33:55.203Z,5.35
2017-12-05T01:34:29.087Z,5.60
2017-12-05T01:35:02.985Z,5.50
2017-12-05T01:35:36.849Z,6.20
2017-12-05T01:36:10.734Z,6.93
2017-12-05T01:36:44.597Z,6.35
2017-12-05T01:37:18.455Z,6.57
2017-12-05T01:37:52.305Z,6.25
2017-12-05T01:38:26.171Z,6.50
2017-12-05T01:39:00.022Z,5.05
2017-12-05T01:39:34.077Z,5.93
2017-12-05T01:40:07.942Z,5.97
2017-12-05T01:40:41.802Z,6.28
2017-12-05T01:41:15.674Z,6.50
2017-12-05T01:41:49.837Z,6.50
2017-12-05T01:42:23.685Z,5.50
2017-12-05T01:42:57.543Z,6.10
2017-12-05T01:43:31.542Z,6.35
2017-12-05T01:44:05.436Z,6.03
2017-12-05T01:44:39.414Z,6.18
2017-12-05T01:45:13.289Z,5.95
2017-12-05T01:45:47.158Z,5.85
2017-12-05T01:46:21.465Z,5.87
2017-12-05T01:46:55.342Z,5.97
2017-12-05T01:47:29.423Z,6.07
2017-12-05T01:48:03.313Z,6.50
2017-12-05T01:48:37.198Z,6.15
2017-12-05T01:49:11.062Z,5.75
2017-12-05T01:49:44.919Z,6.60
2017-12-05T01:50:18.820Z,6.78
2017-12-05T01:50:52.717Z,6.15
2017-12-05T01:51:26.582Z,6.07
2017-12-05T01:52:00.443Z,5.60
2017-12-05T01:52:34.410Z,6.62
2017-12-05T01:53:08.283Z,5.43
2017-12-05T01:53:42.350Z,6.62
2017-12-05T01:54:16.276Z,6.00
2017-12-05T01:54:50.190Z,6.05
2017-12-05T01:55:24.066Z,5.85
2017-12-05T01:55:58.002Z,6.82
2017-12-05T01:56:31.900Z,6.35
2017-12-05T01:57:05.760Z,7.05
2017-12-05T01:57:39.641Z,6.60
2017-12-05T01:58:13.499Z,6.55
2017-12-05T01:58:47.348Z,5.60
2017-12-05T01:59:21.616Z,7.10
2017-12-05T01:59:55.493Z,6.40
2017-12-05T02:00:29.376Z,6.10
2017-12-05T02:01:03.240Z,6.53
2017-12-05T02:01:37.397Z,7.97
2017-12-05T02:02:11.256Z,6.40
2017-12-05T02:02:45.211Z,6.65
2017-12-05T02:03:19.082Z,6.80
2017-12-05T02:03:53.183Z,6.35
2017-12-05T02:04:27.198Z,6.18
2017-12-05T02:05:01.073Z,6.68
2017-12-05T02:05:34.948Z,6.55
2017-12-05T02:06:08.885Z,6.62
2017-12-05T02:06:42.754Z,6.15
2017-12-05T02:07:16.777Z,6.65
2017-12-05T02:07:50.650Z,7.05
2017-12-05T02:08:24.561Z,6.05
2017-12-05T02:08:58.425Z,6.80
2017-12-05T02:09:32.393Z,7.47
2017-12-05T02:10:06.250Z,7.43
2017-12-05T02:10:40.109Z,6.72
2017-12-05T02:11:13.978Z,7.43
2017-12-05T02:11:47.866Z,7.30
2017-12-05T02:12:21.724Z,7.50
2017-12-05T02:12:55.578Z,7.53
2017-12-05T02:13:29.429Z,7.12
2017-12-05T02:14:03.286Z,7.70
2017-12-05T02:14:37.153Z,7.68
2017-12-05T02:15:11.011Z,6.90
2017-12-05T02:15:44.885Z,7.05
2017-12-05T02:16:18.766Z,6.70
2017-12-05T02:16:52.779Z,7.65
2017-12-05T02:17:26.645Z,7.20
2017-12-05T02:18:00.505Z,7.72
2017-12-05T02:18:34.360Z,7.70
2017-12-05T02:19:08.217Z,6.90
2017-12-05T02:19:42.066Z,6.75
2017-12-05T02:20:15.922Z,7.32
2017-12-05T02:20:49.946Z,7.85
2017-12-05T02:21:23.837Z,8.23
2017-12-05T02:21:57.690Z,8.13
2017-12-05T02:22:31.645Z,8.27
2017-12-05T02:23:05.518Z,8.23
2017-12-05T02:23:39.381Z,7.45
2017-12-05T02:24:13.551Z,7.82
2017-12-05T02:24:47.401Z,7.75
2017-12-05T02:25:21.261Z,8.95
2017-12-05T02:25:55.141Z,7.80
2017-12-05T02:26:29.118Z,8.35
2017-12-05T02:27:02.981Z,7.53
2017-12-05T02:27:36.876Z,7.90
2017-12-05T02:28:10.781Z,8.15
2017-12-05T02:28:44.790Z,6.95
2017-12-05T02:29:18.667Z,7.85
2017-12-05T02:29:52.678Z,7.80
2017-12-05T02:30:26.555Z,7.97
2017-12-05T02:31:00.438Z,7.30
2017-12-05T02:31:34.330Z,7.55
2017-12-05T02:32:08.276Z,8.00
2017-12-05T02:32:42.267Z,7.47
2017-12-05T02:33:16.362Z,7.30
2017-12-05T02:33:50.226Z,7.60
2017-12-05T02:34:24.246Z,8.45
2017-12-05T02:34:58.120Z,7.43
2017-12-05T02:35:31.979Z,8.48
2017-12-05T02:36:05.848Z,7.57
2017-12-05T02:36:39.909Z,8.23
2017-12-05T02:37:13.945Z,8.68
2017-12-05T02:37:47.803Z,8.55
2017-12-05T02:38:21.803Z,8.02
2017-12-05T02:38:55.689Z,7.80
2017-12-05T02:39:29.584Z,9.13
2017-12-05T02:40:03.693Z,8.07
2017-12-05T02:40:43.377Z,8.30
2017-12-05T02:41:17.249Z,9.18
2017-12-05T02:41:51.245Z,8.45
2017-12-05T02:42:25.142Z,7.50
2017-12-05T02:42:59.033Z,7.68
2017-12-05T02:43:33.034Z,9.20
2017-12-05T02:44:07.027Z,7.80
2017-12-05T02:44:40.884Z,7.55
2017-12-05T02:45:14.737Z,8.25
2017-12-05T02:45:48.586Z,8.57
2017-12-05T02:46:22.464Z,8.05
2017-12-05T02:46:56.358Z,8.05
2017-12-05T02:47:30.221Z,8.40
2017-12-05T02:48:04.086Z,8.85
2017-12-05T02:48:37.987Z,7.82
2017-12-05T02:49:11.862Z,7.40
2017-12-05T02:49:45.732Z,8.55
2017-12-05T02:50:19.663Z,7.50
2017-12-05T02:50:59.395Z,7.90
2017-12-05T02:51:33.248Z,7.05
2017-12-05T02:52:07.147Z,7.85
2017-12-05T02:52:41.081Z,7.60
2017-12-05T02:53:14.933Z,7.60
2017-12-05T02:53:48.838Z,6.85
2017-12-05T02:54:22.724Z,8.52
2017-12-05T02:54:56.577Z,8.30
2017-12-05T02:55:30.429Z,7.35
2017-12-05T02:56:04.302Z,8.32
2017-12-05T02:56:38.265Z,8.10
2017-12-05T02:57:12.448Z,7.18
2017-12-05T02:57:46.337Z,7.97
2017-12-05T02:58:20.332Z,8.43
2017-12-05T02:58:54.249Z,8.27
2017-12-05T02:59:28.102Z,7.68
2017-12-05T03:00:01.975Z,8.05
2017-12-05T03:00:35.867Z,8.45
2017-12-05T03:01:09.726Z,8.32
2017-12-05T03:01:43.805Z,9.50
2017-12-05T03:02:17.692Z,9.00
2017-12-05T03:02:51.558Z,8.80
2017-12-05T03:03:25.434Z,8.82
2017-12-05T03:03:59.278Z,9.20
2017-12-05T03:04:33.156Z,8.55
2017-12-05T03:05:07.025Z,8.23
2017-12-05T03:05:40.891Z,8.15
2017-12-05T03:06:14.750Z,8.50
2017-12-05T03:06:48.614Z,8.90
2017-12-05T03:07:22.679Z,7.57
2017-12-05T03:07:56.551Z,7.93
2017-12-05T03:08:30.421Z,7.85
2017-12-05T03:09:04.276Z,8.43
2017-12-05T03:09:38.249Z,8.77
2017-12-05T03:10:12.096Z,8.32
2017-12-05T03:10:45.953Z,8.85
2017-12-05T03:11:19.828Z,8.95
2017-12-05T03:11:53.677Z,9.20
2017-12-05T03:12:27.546Z,8.70
2017-12-05T03:13:01.513Z,8.32
2017-12-05T03:13:35.371Z,8.63
2017-12-05T03:14:09.430Z,8.80
2017-12-05T03:14:43.316Z,8.75
2017-12-05T03:15:17.182Z,7.50
2017-12-05T03:15:51.096Z,7.95
2017-12-05T03:16:24.961Z,8.00
2017-12-05T03:16:58.976Z,8.75
2017-12-05T03:17:32.853Z,8.23
2017-12-05T03:18:06.748Z,7.90
2017-12-05T03:18:40.621Z,7.53
2017-12-05T03:19:14.494Z,8.05
2017-12-05T03:19:48.392Z,8.80
2017-12-05T03:20:22.361Z,8.38
2017-12-05T03:20:56.223Z,8.63
2017-12-05T03:21:30.081Z,7.95
2017-12-05T03:22:03.965Z,8.45
2017-12-05T03:22:37.865Z,8.70
2017-12-05T03:23:11.744Z,8.95
2017-12-05T03:23:46.062Z,8.45
2017-12-05T03:24:19.936Z,8.50
2017-12-05T03:24:53.823Z,8.18
2017-12-05T03:25:27.718Z,8.10
2017-12-05T03:26:01.589Z,8.95
2017-12-05T03:26:35.475Z,7.85
2017-12-05T03:27:09.333Z,9.68
2017-12-05T03:27:43.218Z,8.02
2017-12-05T03:28:17.180Z,8.90
2017-12-05T03:28:51.424Z,8.02
2017-12-05T03:29:25.294Z,7.57
2017-12-05T03:29:59.160Z,8.40
2017-12-05T03:30:33.207Z,8.13
2017-12-05T03:31:07.207Z,8.70
2017-12-05T03:31:41.109Z,8.15
2017-12-05T03:32:15.098Z,8.35
2017-12-05T03:32:48.991Z,7.78
2017-12-05T03:33:22.838Z,8.30
2017-12-05T03:33:56.693Z,7.05
2017-12-05T03:34:30.568Z,7.82
2017-12-05T03:35:10.240Z,8.88
2017-12-05T03:35:44.129Z,9.07
2017-12-05T03:36:18.192Z,8.00
2017-12-05T03:36:52.196Z,8.40
2017-12-05T03:37:26.050Z,8.63
2017-12-05T03:37:59.916Z,9.20
2017-12-05T03:38:33.878Z,8.73
2017-12-05T03:39:07.742Z,8.40
2017-12-05T03:39:41.781Z,9.32
2017-12-05T03:40:15.663Z,7.40
2017-12-05T03:40:49.511Z,8.10
2017-12-05T03:41:23.694Z,7.32
2017-12-05T03:41:57.753Z,8.40
2017-12-05T03:42:31.608Z,8.50
2017-12-05T03:43:05.481Z,9.20
2017-12-05T03:43:39.334Z,8.63
2017-12-05T03:44:13.200Z,9.70
2017-12-05T03:44:47.048Z,8.80
2017-12-05T03:45:21.047Z,10.25
2017-12-05T03:45:54.914Z,9.23
2017-12-05T03:46:28.777Z,8.63
2017-12-05T03:47:02.639Z,8.80
2017-12-05T03:47:36.491Z,7.97
2017-12-05T03:48:10.369Z,7.85
2017-12-05T03:48:44.247Z,8.45
2017-12-05T03:49:18.762Z,8.23
2017-12-05T03:49:52.621Z,8.48
2017-12-05T03:50:26.478Z,8.30
2017-12-05T03:51:00.344Z,8.55
2017-12-05T03:51:34.500Z,9.25
2017-12-05T03:52:08.381Z,8.63
2017-12-05T03:52:42.270Z,9.55
2017-12-05T03:53:16.139Z,10.02
2017-12-05T03:53:50.066Z,8.48
2017-12-05T03:54:23.939Z,8.45
2017-12-05T03:54:57.797Z,8.98
2017-12-05T03:55:31.653Z,8.15
2017-12-05T03:56:05.551Z,8.70
2017-12-05T03:56:39.431Z,8.52
2017-12-05T03:57:13.437Z,7.80
2017-12-05T03:57:47.434Z,7.87
2017-12-05T03:58:21.538Z,7.72
2017-12-05T03:58:55.433Z,8.45
2017-12-05T03:59:29.325Z,8.23
2017-12-05T04:00:03.339Z,8.70
2017-12-05T04:00:37.321Z,8.40
2017-12-05T04:01:11.214Z,8.90
2017-12-05T04:01:45.129Z,8.70
2017-12-05T04:02:19.124Z,7.97
2017-12-05T04:02:52.983Z,8.07
2017-12-05T04:03:26.917Z,8.52
2017-12-05T04:04:00.830Z,7.55
2017-12-05T04:04:34.680Z,8.60
2017-12-05T04:05:08.705Z,8.82
2017-12-05T04:05:42.558Z,8.82
2017-12-05T04:06:16.593Z,7.87
2017-12-05T04:06:50.590Z,8.27
2017-12-05T04:07:24.695Z,9.00
2017-12-05T04:07:58.804Z,8.75
2017-12-05T04:08:32.707Z,7.70
2017-12-05T04:09:06.562Z,8.90
2017-12-05T04:09:40.480Z,8.38
2017-12-05T04:10:14.363Z,8.82
2017-12-05T04:10:48.225Z,8.85
2017-12-05T04:11:22.262Z,8.38
2017-12-05T04:11:56.123Z,8.35
2017-12-05T04:12:29.970Z,8.82
2017-12-05T04:13:03.825Z,9.50
2017-12-05T04:13:38.256Z,8.63
2017-12-05T04:14:12.129Z,9.55
2017-12-05T04:14:45.985Z,9.45
2017-12-05T04:15:20.044Z,9.52
2017-12-05T04:15:53.913Z,8.25
2017-12-05T04:16:27.935Z,8.32
2017-12-05T04:17:01.825Z,9.10
2017-12-05T04:17:35.697Z,8.65
2017-12-05T04:18:09.610Z,8.60
2017-12-05T04:18:43.488Z,8.13
2017-12-05T04:19:17.506Z,8.38
2017-12-05T04:19:51.509Z,8.43
2017-12-05T04:20:25.405Z,8.50
2017-12-05T04:20:59.391Z,9.18
2017-12-05T04:21:33.252Z,9.38
2017-12-05T04:22:07.122Z,9.85
2017-12-05T04:22:40.995Z,10.18
2017-12-05T04:23:14.858Z,12.35
2017-12-05T04:23:48.725Z,10.55
2017-12-05T04:24:22.583Z,8.80
2017-12-05T04:24:56.445Z,7.20
2017-12-05T04:25:30.326Z,9.15
2017-12-05T04:26:04.247Z,9.38
2017-12-05T04:26:38.124Z,7.72
2017-12-05T04:27:11.995Z,8.88
2017-12-05T04:27:45.990Z,10.18
2017-12-05T04:28:19.873Z,8.63
2017-12-05T04:28:54.049Z,8.10
2017-12-05T04:29:27.979Z,7.65
2017-12-05T04:30:02.070Z,7.90
2017-12-05T04:30:35.947Z,8.45
2017-12-05T04:31:10.746Z,7.40
2017-12-05T04:31:44.613Z,8.57
2017-12-05T04:32:18.610Z,8.10
2017-12-05T04:32:52.467Z,7.97
2017-12-05T04:33:26.330Z,8.30
2017-12-05T04:34:00.225Z,8.05
2017-12-05T04:34:34.086Z,7.72
2017-12-05T04:35:08.053Z,8.10
2017-12-05T04:35:42.038Z,8.35
2017-12-05T04:36:15.910Z,8.65
2017-12-05T04:36:49.866Z,8.50
2017-12-05T04:37:23.801Z,9.10
2017-12-05T04:37:57.830Z,8.00
2017-12-05T04:38:31.719Z,8.43
2017-12-05T04:39:05.612Z,8.38
2017-12-05T04:39:39.505Z,9.00
2017-12-05T04:40:13.361Z,9.48
2017-12-05T04:40:47.260Z,8.93
2017-12-05T04:41:21.149Z,8.93
2017-12-05T04:41:55.008Z,7.97
2017-12-05T04:42:29.066Z,8.25
2017-12-05T04:43:02.980Z,9.50
2017-12-05T04:43:36.917Z,8.80
2017-12-05T04:44:10.840Z,8.30
2017-12-05T04:44:44.726Z,9.50
2017-12-05T04:45:18.763Z,8.40
2017-12-05T04:45:52.617Z,9.68
2017-12-05T04:46:26.488Z,8.43
2017-12-05T04:47:00.346Z,7.95
2017-12-05T04:47:34.338Z,8.38
2017-12-05T04:48:08.375Z,9.45
2017-12-05T04:48:42.244Z,7.47
2017-12-05T04:49:16.233Z,8.73
2017-12-05T04:49:50.096Z,8.20
2017-12-05T04:50:23.955Z,9.63
2017-12-05T04:50:58.024Z,11.20
2017-12-05T04:51:31.911Z,10.15
2017-12-05T04:52:05.800Z,9.55
2017-12-05T04:52:39.714Z,8.43
2017-12-05T04:53:13.618Z,8.15
2017-12-05T04:53:47.495Z,8.20
2017-12-05T04:54:21.481Z,8.55
2017-12-05T04:54:55.387Z,10.18
2017-12-05T04:55:29.330Z,8.63
2017-12-05T04:56:03.180Z,7.68
2017-12-05T04:56:37.052Z,9.05
2017-12-05T04:57:10.940Z,8.52
2017-12-05T04:57:44.977Z,8.95
2017-12-05T04:58:18.889Z,9.80
2017-12-05T04:58:52.758Z,8.82
2017-12-05T04:59:26.731Z,8.82
2017-12-05T05:00:00.737Z,9.10
2017-12-05T05:00:34.592Z,9.23
2017-12-05T05:01:08.450Z,8.40
2017-12-05T05:01:42.318Z,8.65
2017-12-05T05:02:16.185Z,8.25
2017-12-05T05:02:50.044Z,8.20
2017-12-05T05:03:23.914Z,8.88
2017-12-05T05:03:57.806Z,8.50
2017-12-05T05:04:31.717Z,8.25
2017-12-05T05:05:05.588Z,7.25
2017-12-05T05:05:39.493Z,7.25
2017-12-05T05:06:13.429Z,7.43
2017-12-05T05:06:47.271Z,8.30
2017-12-05T05:07:21.268Z,7.45
2017-12-05T05:07:55.163Z,8.38
2017-12-05T05:08:29.171Z,7.18
2017-12-05T05:09:03.061Z,7.07
2017-12-05T05:09:37.088Z,8.10
2017-12-05T05:10:10.961Z,7.30
2017-12-05T05:10:44.836Z,6.62
2017-12-05T05:11:18.736Z,7.65
2017-12-05T05:11:52.583Z,7.00
2017-12-05T05:12:26.432Z,7.25
2017-12-05T05:13:00.646Z,8.05
2017-12-05T05:13:34.515Z,8.38
2017-12-05T05:14:08.530Z,8.57
2017-12-05T05:14:42.406Z,8.85
2017-12-05T05:15:16.294Z,8.25
2017-12-05T05:15:50.143Z,7.68
2017-12-05T05:16:24.001Z,7.68
2017-12-05T05:16:57.900Z,7.32
2017-12-05T05:17:31.779Z,7.30
2017-12-05T05:18:05.799Z,8.32
2017-12-05T05:18:39.673Z,7.50
2017-12-05T05:19:13.531Z,6.90
2017-12-05T05:19:47.421Z,8.05
2017-12-05T05:20:21.494Z,7.22
2017-12-05T05:20:55.361Z,7.40
2017-12-05T05:21:29.232Z,7.45
2017-12-05T05:22:03.101Z,6.87
2017-12-05T05:22:37.054Z,8.07
2017-12-05T05:23:10.915Z,7.95
2017-12-05T05:23:44.879Z,6.65
2017-12-05T05:24:18.741Z,7.40
2017-12-05T05:24:52.610Z,8.48
2017-12-05T05:25:26.645Z,7.43
2017-12-05T05:26:00.514Z,7.85
2017-12-05T05:26:34.481Z,7.10
2017-12-05T05:27:08.333Z,6.53
2017-12-05T05:27:42.192Z,7.40
2017-12-05T05:28:16.208Z,6.00
2017-12-05T05:28:50.069Z,6.47
2017-12-05T05:29:24.114Z,6.62
2017-12-05T05:29:57.995Z,6.43
2017-12-05T05:30:31.861Z,6.32
2017-12-05T05:31:05.799Z,6.78
2017-12-05T05:31:39.654Z,6.28
2017-12-05T05:32:13.691Z,6.45
2017-12-05T05:32:47.546Z,5.95
2017-12-05T05:33:21.592Z,6.00
2017-12-05T05:33:55.458Z,6.43
2017-12-05T05:34:29.331Z,6.90
2017-12-05T05:35:03.226Z,7.25
2017-12-05T05:35:37.090Z,6.22
2017-12-05T05:36:10.973Z,7.22
2017-12-05T05:36:44.971Z,6.40
2017-12-05T05:37:18.845Z,5.95
2017-12-05T05:37:52.874Z,5.93
2017-12-05T05:38:26.854Z,6.65
2017-12-05T05:39:00.754Z,7.28
2017-12-05T05:39:34.613Z,6.50
2017-12-05T05:40:08.484Z,6.82
2017-12-05T05:40:42.362Z,7.35
2017-12-05T05:41:16.217Z,6.78
2017-12-05T05:41:50.070Z,6.55
2017-12-05T05:42:24.118Z,6.43
2017-12-05T05:42:57.991Z,6.00
2017-12-05T05:43:31.998Z,7.07
2017-12-05T05:44:05.853Z,7.03
2017-12-05T05:44:39.898Z,6.22
2017-12-05T05:45:13.781Z,6.43
2017-12-05T05:45:47.778Z,6.12
2017-12-05T05:46:21.633Z,6.93
2017-12-05T05:46:55.586Z,6.28
2017-12-05T05:47:29.675Z,7.90
2017-12-05T05:48:03.537Z,6.32
2017-12-05T05:48:37.393Z,5.50
2017-12-05T05:49:11.289Z,6.45
2017-12-05T05:49:45.160Z,6.15
2017-12-05T05:50:19.178Z,6.93
2017-12-05T05:50:53.078Z,6.40
2017-12-05T05:51:26.954Z,7.50
2017-12-05T05:52:00.822Z,6.60
2017-12-05T05:52:34.682Z,6.20
2017-12-05T05:53:08.656Z,6.20
2017-12-05T05:53:42.529Z,6.25
2017-12-05T05:54:16.531Z,6.70
2017-12-05T05:54:50.381Z,6.37
2017-12-05T05:55:24.428Z,6.40
2017-12-05T05:55:58.298Z,7.15
2017-12-05T05:56:32.180Z,7.00
2017-12-05T05:57:06.127Z,7.03
2017-12-05T05:57:39.984Z,6.70
2017-12-05T05:58:13.850Z,6.12
2017-12-05T05:58:47.788Z,6.50
2017-12-05T05:59:21.640Z,5.45
2017-12-05T05:59:55.492Z,6.40
2017-12-05T06:00:29.488Z,6.07
2017-12-05T06:01:03.366Z,5.72
2017-12-05T06:01:37.257Z,6.60
2017-12-05T06:02:11.160Z,7.15
2017-12-05T06:02:45.023Z,6.62
2017-12-05T06:03:18.878Z,6.72
2017-12-05T06:03:53.069Z,7.00
2017-12-05T06:04:26.959Z,8.02
2017-12-05T06:05:00.915Z,7.30
2017-12-05T06:05:34.824Z,7.07
2017-12-05T06:06:08.682Z,7.32
2017-12-05T06:06:42.554Z,6.22
2017-12-05T06:07:16.420Z,7.25
2017-12-05T06:07:50.292Z,7.53
2017-12-05T06:08:24.160Z,7.47
2017-12-05T06:08:58.032Z,5.30
2017-12-05T06:09:31.927Z,6.95
2017-12-05T06:10:05.821Z,6.47
2017-12-05T06:10:39.754Z,5.72
2017-12-05T06:11:13.613Z,5.95
2017-12-05T06:11:47.502Z,6.70
2017-12-05T06:12:21.367Z,6.30
2017-12-05T06:13:35.906Z,7.57
2017-12-05T06:14:09.773Z,7.12
2017-12-05T06:14:43.633Z,6.60
2017-12-05T06:15:17.533Z,6.72
2017-12-05T06:15:51.402Z,6.32
2017-12-05T06:16:25.301Z,6.40
2017-12-05T06:16:59.169Z,7.45
2017-12-05T06:17:33.092Z,6.80
2017-12-05T06:18:06.966Z,6.65
2017-12-05T06:18:40.827Z,6.30
2017-12-05T06:19:14.770Z,6.90
2017-12-05T06:19:48.648Z,7.00
2017-12-05T06:20:22.596Z,6.18
2017-12-05T06:20:56.474Z,6.78
2017-12-05T06:21:30.354Z,6.07
2017-12-05T06:22:04.222Z,6.65
2017-12-05T06:22:38.087Z,7.00
2017-12-05T06:23:11.953Z,6.68
2017-12-05T06:23:45.808Z,5.75
2017-12-05T06:24:19.736Z,5.60
2017-12-05T06:24:53.738Z,5.62
2017-12-05T06:25:27.738Z,5.90
2017-12-05T06:26:01.625Z,6.00
2017-12-05T06:26:35.493Z,5.40
2017-12-05T06:27:09.362Z,5.90
2017-12-05T06:27:43.248Z,5.87
2017-12-05T06:28:17.111Z,5.60
2017-12-05T06:28:50.981Z,5.65
2017-12-05T06:29:24.873Z,6.10
2017-12-05T06:29:58.734Z,5.10
2017-12-05T06:30:32.621Z,5.62
2017-12-05T06:31:06.517Z,7.00
2017-12-05T06:31:40.421Z,8.60
2017-12-05T06:32:14.542Z,6.95
2017-12-05T06:32:48.429Z,7.00
2017-12-05T06:33:22.470Z,6.50
2017-12-05T06:33:56.481Z,6.60
2017-12-05T06:34:30.360Z,7.60
2017-12-05T06:35:04.382Z,7.47
2017-12-05T06:35:38.254Z,7.35
2017-12-05T06:36:12.280Z,6.50
2017-12-05T06:36:46.195Z,5.60
2017-12-05T06:37:20.556Z,5.10
2017-12-05T06:37:54.537Z,5.68
2017-12-05T06:38:28.393Z,4.87
2017-12-05T06:39:02.784Z,5.70
2017-12-05T06:39:36.648Z,6.45
2017-12-05T06:40:10.642Z,5.62
2017-12-05T06:40:44.507Z,6.10
2017-12-05T06:41:18.483Z,5.80
2017-12-05T06:41:52.331Z,5.32
2017-12-05T06:42:26.414Z,7.65
2017-12-05T06:43:00.432Z,6.50
2017-12-05T06:43:34.423Z,7.68
2017-12-05T06:44:08.327Z,6.60
2017-12-05T06:44:42.296Z,7.05
2017-12-05T06:45:16.192Z,6.15
2017-12-05T06:45:50.211Z,6.10
2017-12-05T06:46:24.236Z,5.40
2017-12-05T06:46:58.099Z,5.32
2017-12-05T06:47:31.972Z,6.10
2017-12-05T06:48:05.909Z,6.45
2017-12-05T06:48:39.801Z,7.32
2017-12-05T06:49:13.799Z,4.95
2017-12-05T06:49:47.678Z,5.75
2017-12-05T06:50:21.541Z,6.57
2017-12-05T06:50:58.909Z,6.05
2017-12-05T06:51:32.803Z,5.87
2017-12-05T06:52:06.664Z,5.80
2017-12-05T06:52:40.526Z,5.82
2017-12-05T06:53:14.384Z,6.37
2017-12-05T06:53:48.245Z,5.20
2017-12-05T06:54:22.101Z,4.97
2017-12-05T06:54:56.741Z,6.45
2017-12-05T06:55:30.600Z,6.65
2017-12-05T06:56:04.474Z,6.28
2017-12-05T06:56:38.345Z,6.25
2017-12-05T06:57:12.195Z,5.65
2017-12-05T06:57:46.064Z,6.05
2017-12-05T06:58:19.925Z,5.72
2017-12-05T06:58:53.809Z,6.18
2017-12-05T06:59:27.675Z,5.95
2017-12-05T07:00:01.596Z,6.37
2017-12-05T07:00:35.469Z,6.68
2017-12-05T07:01:09.384Z,7.25
2017-12-05T07:02:23.856Z,6.15
2017-12-05T07:02:57.806Z,6.28
2017-12-05T07:03:31.686Z,6.43
2017-12-05T07:04:05.557Z,6.20
2017-12-05T07:04:39.427Z,5.45
2017-12-05T07:05:13.298Z,5.62
2017-12-05T07:05:47.155Z,6.12
2017-12-05T07:06:21.016Z,5.10
2017-12-05T07:06:54.978Z,5.40
2017-12-05T07:07:28.838Z,5.68
2017-12-05T07:08:02.986Z,6.18
2017-12-05T07:08:36.844Z,5.80
2017-12-05T07:09:15.661Z,6.18
2017-12-05T07:09:49.530Z,5.80
2017-12-05T07:10:23.393Z,5.60
2017-12-05T07:10:57.246Z,5.80
2017-12-05T07:11:31.282Z,6.03
2017-12-05T07:12:05.160Z,5.65
2017-12-05T07:12:39.055Z,5.95
2017-12-05T07:13:12.921Z,4.80
2017-12-05T07:13:47.047Z,6.30
2017-12-05T07:14:21.178Z,5.05
2017-12-05T07:14:55.096Z,5.15
2017-12-05T07:15:28.936Z,5.70
2017-12-05T07:16:02.785Z,5.07
2017-12-05T07:16:36.634Z,5.20
2017-12-05T07:17:10.513Z,5.90
2017-12-05T07:17:44.402Z,5.70
2017-12-05T07:18:18.345Z,4.97
2017-12-05T07:18:52.429Z,5.10
2017-12-05T07:19:26.273Z,5.00
2017-12-05T07:20:00.158Z,5.90
2017-12-05T07:20:34.023Z,5.05
2017-12-05T07:21:07.871Z,5.85
2017-12-05T07:21:41.993Z,5.60
2017-12-05T07:22:15.866Z,5.40
2017-12-05T07:22:49.717Z,5.25
2017-12-05T07:23:23.561Z,5.45
2017-12-05T07:23:57.445Z,6.20
2017-12-05T07:24:31.777Z,6.50
2017-12-05T07:25:05.620Z,6.03
2017-12-05T07:25:39.486Z,5.47
2017-12-05T07:26:13.352Z,5.55
2017-12-05T07:26:47.208Z,5.57
2017-12-05T07:27:21.080Z,6.15
2017-12-05T07:27:54.937Z,6.55
2017-12-05T07:28:28.790Z,6.20
2017-12-05T07:29:02.661Z,5.55
2017-12-05T07:29:36.772Z,5.65
2017-12-05T07:30:10.733Z,6.10
2017-12-05T07:30:44.592Z,5.93
2017-12-05T07:31:18.483Z,5.35
2017-12-05T07:31:52.342Z,5.80
2017-12-05T07:32:26.279Z,5.62
2017-12-05T07:33:00.130Z,5.65